sensor_id;sensor_type;location;lat;lon;timestamp;temperature;humidity
35246;DHT22;21379;50.962;6.960;2023-04-03T00:00:48;3.40;99.90
35246;DHT22;21379;50.962;6.960;2023-04-03T00:03:15;3.30;99.90
35246;DHT22;21379;50.962;6.960;2023-04-03T00:05:42;3.30;99.90
35246;DHT22;21379;50.962;6.960;2023-04-03T00:08:09;3.20;99.90
35246;DHT22;21379;50.962;6.960;2023-04-03T00:10:38;3.20;99.90
35246;DHT22;21379;50.962;6.960;2023-04-03T00:13:05;3.10;99.90
35246;DHT22;21379;50.962;6.960;2023-04-03T00:15:34;3.10;99.90
35246;DHT22;21379;50.962;6.960;2023-04-03T00:18:01;3.10;99.90
35246;DHT22;21379;50.962;6.960;2023-04-03T00:20:29;3.10;99.90
35246;DHT22;21379;50.962;6.960;2023-04-03T00:22:56;3.10;99.90
35246;DHT22;21379;50.962;6.960;2023-04-03T00:25:22;3.00;99.90
35246;DHT22;21379;50.962;6.960;2023-04-03T00:27:51;2.90;99.90
35246;DHT22;21379;50.962;6.960;2023-04-03T00:30:20;2.80;99.90
35246;DHT22;21379;50.962;6.960;2023-04-03T00:32:47;2.80;99.90
35246;DHT22;21379;50.962;6.960;2023-04-03T00:35:14;2.80;99.90
35246;DHT22;21379;50.962;6.960;2023-04-03T00:37:42;2.80;99.90
35246;DHT22;21379;50.962;6.960;2023-04-03T00:40:09;2.70;99.90
35246;DHT22;21379;50.962;6.960;2023-04-03T00:42:37;2.70;99.90
35246;DHT22;21379;50.962;6.960;2023-04-03T00:45:37;2.70;99.90
35246;DHT22;21379;50.962;6.960;2023-04-03T00:48:07;2.60;99.90
35246;DHT22;21379;50.962;6.960;2023-04-03T00:50:37;2.50;99.90
35246;DHT22;21379;50.962;6.960;2023-04-03T00:53:06;2.50;99.90
35246;DHT22;21379;50.962;6.960;2023-04-03T00:55:35;2.40;99.90
35246;DHT22;21379;50.962;6.960;2023-04-03T00:58:03;2.40;99.90
35246;DHT22;21379;50.962;6.960;2023-04-03T01:00:31;2.40;99.90
35246;DHT22;21379;50.962;6.960;2023-04-03T01:02:59;2.30;99.90
35246;DHT22;21379;50.962;6.960;2023-04-03T01:05:27;2.30;99.90
35246;DHT22;21379;50.962;6.960;2023-04-03T01:07:54;2.30;99.90
35246;DHT22;21379;50.962;6.960;2023-04-03T01:10:21;2.30;99.90
35246;DHT22;21379;50.962;6.960;2023-04-03T01:12:49;2.20;99.90
35246;DHT22;21379;50.962;6.960;2023-04-03T01:15:19;2.10;99.90
35246;DHT22;21379;50.962;6.960;2023-04-03T01:17:51;2.10;99.90
35246;DHT22;21379;50.962;6.960;2023-04-03T01:20:39;2.10;99.90
35246;DHT22;21379;50.962;6.960;2023-04-03T01:23:28;2.10;99.90
35246;DHT22;21379;50.962;6.960;2023-04-03T01:25:56;2.10;99.90
35246;DHT22;21379;50.962;6.960;2023-04-03T01:28:26;2.20;99.90
35246;DHT22;21379;50.962;6.960;2023-04-03T01:31:00;2.20;99.90
35246;DHT22;21379;50.962;6.960;2023-04-03T01:33:33;2.10;99.90
35246;DHT22;21379;50.962;6.960;2023-04-03T01:36:01;2.00;99.90
35246;DHT22;21379;50.962;6.960;2023-04-03T01:38:29;2.00;99.90
35246;DHT22;21379;50.962;6.960;2023-04-03T01:40:56;2.10;99.90
35246;DHT22;21379;50.962;6.960;2023-04-03T01:43:24;2.10;99.90
35246;DHT22;21379;50.962;6.960;2023-04-03T01:45:51;2.10;99.90
35246;DHT22;21379;50.962;6.960;2023-04-03T01:48:20;2.10;99.90
35246;DHT22;21379;50.962;6.960;2023-04-03T01:50:48;2.10;99.90
35246;DHT22;21379;50.962;6.960;2023-04-03T01:53:15;2.10;99.90
35246;DHT22;21379;50.962;6.960;2023-04-03T01:55:42;2.10;99.90
35246;DHT22;21379;50.962;6.960;2023-04-03T01:58:09;2.00;99.90
35246;DHT22;21379;50.962;6.960;2023-04-03T02:00:36;1.90;99.90
35246;DHT22;21379;50.962;6.960;2023-04-03T02:03:03;1.80;99.90
35246;DHT22;21379;50.962;6.960;2023-04-03T02:05:30;1.80;99.90
35246;DHT22;21379;50.962;6.960;2023-04-03T02:07:58;1.70;99.90
35246;DHT22;21379;50.962;6.960;2023-04-03T02:10:26;1.70;99.90
35246;DHT22;21379;50.962;6.960;2023-04-03T02:12:53;1.70;99.90
35246;DHT22;21379;50.962;6.960;2023-04-03T02:15:20;1.60;99.90
35246;DHT22;21379;50.962;6.960;2023-04-03T02:17:47;1.50;99.90
35246;DHT22;21379;50.962;6.960;2023-04-03T02:20:14;1.60;99.90
35246;DHT22;21379;50.962;6.960;2023-04-03T02:22:41;1.60;99.90
35246;DHT22;21379;50.962;6.960;2023-04-03T02:25:09;1.60;99.90
35246;DHT22;21379;50.962;6.960;2023-04-03T02:27:36;1.50;99.90
35246;DHT22;21379;50.962;6.960;2023-04-03T02:30:04;1.50;99.90
35246;DHT22;21379;50.962;6.960;2023-04-03T02:32:31;1.40;99.90
35246;DHT22;21379;50.962;6.960;2023-04-03T02:34:59;1.40;99.90
35246;DHT22;21379;50.962;6.960;2023-04-03T02:37:27;1.50;99.90
35246;DHT22;21379;50.962;6.960;2023-04-03T02:39:54;1.40;99.90
35246;DHT22;21379;50.962;6.960;2023-04-03T02:42:23;1.30;99.90
35246;DHT22;21379;50.962;6.960;2023-04-03T02:44:51;1.20;99.90
35246;DHT22;21379;50.962;6.960;2023-04-03T02:47:18;1.20;99.90
35246;DHT22;21379;50.962;6.960;2023-04-03T02:49:45;1.20;99.90
35246;DHT22;21379;50.962;6.960;2023-04-03T02:52:12;1.30;99.90
35246;DHT22;21379;50.962;6.960;2023-04-03T02:54:39;1.30;99.90
35246;DHT22;21379;50.962;6.960;2023-04-03T02:57:08;1.30;99.90
35246;DHT22;21379;50.962;6.960;2023-04-03T02:59:37;1.30;99.90
35246;DHT22;21379;50.962;6.960;2023-04-03T03:02:06;1.30;99.90
35246;DHT22;21379;50.962;6.960;2023-04-03T03:04:33;1.20;99.90
35246;DHT22;21379;50.962;6.960;2023-04-03T03:07:00;1.20;99.90
35246;DHT22;21379;50.962;6.960;2023-04-03T03:09:28;1.30;99.90
35246;DHT22;21379;50.962;6.960;2023-04-03T03:11:55;1.40;99.90
35246;DHT22;21379;50.962;6.960;2023-04-03T03:14:22;1.30;99.90
35246;DHT22;21379;50.962;6.960;2023-04-03T03:16:50;1.30;99.90
35246;DHT22;21379;50.962;6.960;2023-04-03T03:19:17;1.30;99.90
35246;DHT22;21379;50.962;6.960;2023-04-03T03:21:44;1.30;99.90
35246;DHT22;21379;50.962;6.960;2023-04-03T03:24:11;1.30;99.90
35246;DHT22;21379;50.962;6.960;2023-04-03T03:26:38;1.30;99.90
35246;DHT22;21379;50.962;6.960;2023-04-03T03:29:05;1.30;99.90
35246;DHT22;21379;50.962;6.960;2023-04-03T03:31:32;1.30;99.90
35246;DHT22;21379;50.962;6.960;2023-04-03T03:34:00;1.40;99.90
35246;DHT22;21379;50.962;6.960;2023-04-03T03:36:27;1.40;99.90
35246;DHT22;21379;50.962;6.960;2023-04-03T03:38:54;1.40;99.90
35246;DHT22;21379;50.962;6.960;2023-04-03T03:41:21;1.40;99.90
35246;DHT22;21379;50.962;6.960;2023-04-03T03:43:48;1.40;99.90
35246;DHT22;21379;50.962;6.960;2023-04-03T03:46:16;1.40;99.90
35246;DHT22;21379;50.962;6.960;2023-04-03T03:48:43;1.30;99.90
35246;DHT22;21379;50.962;6.960;2023-04-03T03:51:11;1.30;99.90
35246;DHT22;21379;50.962;6.960;2023-04-03T03:53:39;1.30;99.90
35246;DHT22;21379;50.962;6.960;2023-04-03T03:56:09;1.40;99.90
35246;DHT22;21379;50.962;6.960;2023-04-03T03:58:40;1.50;99.90
35246;DHT22;21379;50.962;6.960;2023-04-03T04:01:07;1.40;99.90
35246;DHT22;21379;50.962;6.960;2023-04-03T04:03:40;1.40;99.90
35246;DHT22;21379;50.962;6.960;2023-04-03T04:06:08;1.40;99.90
35246;DHT22;21379;50.962;6.960;2023-04-03T04:08:37;1.30;99.90
35246;DHT22;21379;50.962;6.960;2023-04-03T04:11:06;1.30;99.90
35246;DHT22;21379;50.962;6.960;2023-04-03T04:13:33;1.30;99.90
35246;DHT22;21379;50.962;6.960;2023-04-03T04:16:01;1.30;99.90
35246;DHT22;21379;50.962;6.960;2023-04-03T04:18:29;1.40;99.90
35246;DHT22;21379;50.962;6.960;2023-04-03T04:20:56;1.40;99.90
35246;DHT22;21379;50.962;6.960;2023-04-03T04:23:23;1.40;99.90
35246;DHT22;21379;50.962;6.960;2023-04-03T04:25:52;1.30;99.90
35246;DHT22;21379;50.962;6.960;2023-04-03T04:28:20;1.40;99.90
35246;DHT22;21379;50.962;6.960;2023-04-03T04:30:49;1.30;99.90
35246;DHT22;21379;50.962;6.960;2023-04-03T04:33:18;1.30;99.90
35246;DHT22;21379;50.962;6.960;2023-04-03T04:35:47;1.20;99.90
35246;DHT22;21379;50.962;6.960;2023-04-03T04:38:15;1.20;99.90
35246;DHT22;21379;50.962;6.960;2023-04-03T04:40:42;1.20;99.90
35246;DHT22;21379;50.962;6.960;2023-04-03T04:43:10;1.20;99.90
35246;DHT22;21379;50.962;6.960;2023-04-03T04:45:40;1.20;99.90
35246;DHT22;21379;50.962;6.960;2023-04-03T04:48:08;1.20;99.90
35246;DHT22;21379;50.962;6.960;2023-04-03T04:50:35;1.20;99.90
35246;DHT22;21379;50.962;6.960;2023-04-03T04:53:03;1.10;99.90
35246;DHT22;21379;50.962;6.960;2023-04-03T04:55:30;1.10;99.90
35246;DHT22;21379;50.962;6.960;2023-04-03T04:57:57;1.20;99.90
35246;DHT22;21379;50.962;6.960;2023-04-03T05:00:26;1.20;99.90
35246;DHT22;21379;50.962;6.960;2023-04-03T05:02:55;1.10;99.90
35246;DHT22;21379;50.962;6.960;2023-04-03T05:05:22;1.20;99.90
35246;DHT22;21379;50.962;6.960;2023-04-03T05:07:49;1.20;99.90
35246;DHT22;21379;50.962;6.960;2023-04-03T05:10:16;1.10;99.90
35246;DHT22;21379;50.962;6.960;2023-04-03T05:12:44;1.10;99.90
35246;DHT22;21379;50.962;6.960;2023-04-03T05:15:11;1.10;99.90
35246;DHT22;21379;50.962;6.960;2023-04-03T05:17:39;1.10;99.90
35246;DHT22;21379;50.962;6.960;2023-04-03T05:20:11;1.20;99.90
35246;DHT22;21379;50.962;6.960;2023-04-03T05:22:39;1.20;99.90
35246;DHT22;21379;50.962;6.960;2023-04-03T05:25:08;1.20;99.90
35246;DHT22;21379;50.962;6.960;2023-04-03T05:27:36;1.20;99.90
35246;DHT22;21379;50.962;6.960;2023-04-03T05:30:04;1.30;99.90
35246;DHT22;21379;50.962;6.960;2023-04-03T05:32:32;1.30;99.90
35246;DHT22;21379;50.962;6.960;2023-04-03T05:35:12;1.40;99.90
35246;DHT22;21379;50.962;6.960;2023-04-03T05:37:41;1.40;99.90
35246;DHT22;21379;50.962;6.960;2023-04-03T05:40:09;1.50;99.90
35246;DHT22;21379;50.962;6.960;2023-04-03T05:42:38;1.50;99.90
35246;DHT22;21379;50.962;6.960;2023-04-03T05:45:06;1.50;99.90
35246;DHT22;21379;50.962;6.960;2023-04-03T05:47:33;1.50;99.90
35246;DHT22;21379;50.962;6.960;2023-04-03T05:50:00;1.60;99.90
35246;DHT22;21379;50.962;6.960;2023-04-03T05:52:31;1.70;99.90
35246;DHT22;21379;50.962;6.960;2023-04-03T05:55:00;1.70;99.90
35246;DHT22;21379;50.962;6.960;2023-04-03T05:57:29;1.60;99.90
35246;DHT22;21379;50.962;6.960;2023-04-03T05:59:56;1.70;99.90
35246;DHT22;21379;50.962;6.960;2023-04-03T06:02:24;1.90;99.90
35246;DHT22;21379;50.962;6.960;2023-04-03T06:04:52;1.80;99.90
35246;DHT22;21379;50.962;6.960;2023-04-03T06:07:20;1.90;99.90
35246;DHT22;21379;50.962;6.960;2023-04-03T06:09:50;2.00;99.90
35246;DHT22;21379;50.962;6.960;2023-04-03T06:12:18;2.10;99.90
35246;DHT22;21379;50.962;6.960;2023-04-03T06:14:45;2.20;99.90
35246;DHT22;21379;50.962;6.960;2023-04-03T06:17:13;2.30;99.90
35246;DHT22;21379;50.962;6.960;2023-04-03T06:19:41;2.40;99.90
35246;DHT22;21379;50.962;6.960;2023-04-03T06:22:08;2.60;99.90
35246;DHT22;21379;50.962;6.960;2023-04-03T06:24:37;2.70;99.90
35246;DHT22;21379;50.962;6.960;2023-04-03T06:27:05;2.80;99.90
35246;DHT22;21379;50.962;6.960;2023-04-03T06:29:32;3.00;99.90
35246;DHT22;21379;50.962;6.960;2023-04-03T06:31:59;3.10;99.90
35246;DHT22;21379;50.962;6.960;2023-04-03T06:34:26;3.20;99.90
35246;DHT22;21379;50.962;6.960;2023-04-03T06:36:53;3.40;99.90
35246;DHT22;21379;50.962;6.960;2023-04-03T06:39:21;3.50;99.90
35246;DHT22;21379;50.962;6.960;2023-04-03T06:41:49;3.60;99.90
35246;DHT22;21379;50.962;6.960;2023-04-03T06:44:18;3.70;99.90
35246;DHT22;21379;50.962;6.960;2023-04-03T06:46:45;3.80;99.90
35246;DHT22;21379;50.962;6.960;2023-04-03T06:49:13;4.00;99.90
35246;DHT22;21379;50.962;6.960;2023-04-03T06:51:40;4.10;99.90
35246;DHT22;21379;50.962;6.960;2023-04-03T06:54:08;4.40;99.90
35246;DHT22;21379;50.962;6.960;2023-04-03T06:56:35;4.40;99.90
35246;DHT22;21379;50.962;6.960;2023-04-03T06:59:02;4.60;99.90
35246;DHT22;21379;50.962;6.960;2023-04-03T07:01:31;4.70;99.90
35246;DHT22;21379;50.962;6.960;2023-04-03T07:03:58;4.80;99.90
35246;DHT22;21379;50.962;6.960;2023-04-03T07:06:25;4.90;99.90
35246;DHT22;21379;50.962;6.960;2023-04-03T07:08:53;5.00;99.90
35246;DHT22;21379;50.962;6.960;2023-04-03T07:11:20;5.10;99.90
35246;DHT22;21379;50.962;6.960;2023-04-03T07:13:48;5.20;99.90
35246;DHT22;21379;50.962;6.960;2023-04-03T07:16:15;5.50;99.90
35246;DHT22;21379;50.962;6.960;2023-04-03T07:18:43;5.40;99.90
35246;DHT22;21379;50.962;6.960;2023-04-03T07:21:10;5.70;99.90
35246;DHT22;21379;50.962;6.960;2023-04-03T07:23:37;6.00;99.90
35246;DHT22;21379;50.962;6.960;2023-04-03T07:26:04;7.70;99.90
35246;DHT22;21379;50.962;6.960;2023-04-03T07:28:32;9.50;99.90
35246;DHT22;21379;50.962;6.960;2023-04-03T07:31:01;11.00;99.90
35246;DHT22;21379;50.962;6.960;2023-04-03T07:33:29;10.20;99.90
35246;DHT22;21379;50.962;6.960;2023-04-03T07:35:58;11.80;99.90
35246;DHT22;21379;50.962;6.960;2023-04-03T07:38:26;12.60;99.90
35246;DHT22;21379;50.962;6.960;2023-04-03T07:40:53;12.70;99.90
35246;DHT22;21379;50.962;6.960;2023-04-03T07:43:21;12.10;99.90
35246;DHT22;21379;50.962;6.960;2023-04-03T07:45:50;12.80;99.90
35246;DHT22;21379;50.962;6.960;2023-04-03T07:48:17;13.10;99.90
35246;DHT22;21379;50.962;6.960;2023-04-03T07:50:45;13.90;99.90
35246;DHT22;21379;50.962;6.960;2023-04-03T07:53:14;14.20;99.90
35246;DHT22;21379;50.962;6.960;2023-04-03T07:55:41;13.90;99.30
35246;DHT22;21379;50.962;6.960;2023-04-03T07:58:09;13.60;99.30
35246;DHT22;21379;50.962;6.960;2023-04-03T08:00:37;11.80;99.90
35246;DHT22;21379;50.962;6.960;2023-04-03T08:03:04;10.90;99.90
35246;DHT22;21379;50.962;6.960;2023-04-03T08:05:31;10.30;99.90
35246;DHT22;21379;50.962;6.960;2023-04-03T08:07:58;10.10;99.90
35246;DHT22;21379;50.962;6.960;2023-04-03T08:10:27;10.20;99.90
35246;DHT22;21379;50.962;6.960;2023-04-03T08:12:56;10.20;99.90
35246;DHT22;21379;50.962;6.960;2023-04-03T08:15:23;10.10;99.90
35246;DHT22;21379;50.962;6.960;2023-04-03T08:17:50;9.20;99.90
35246;DHT22;21379;50.962;6.960;2023-04-03T08:20:17;9.50;99.90
35246;DHT22;21379;50.962;6.960;2023-04-03T08:22:44;10.10;99.90
35246;DHT22;21379;50.962;6.960;2023-04-03T08:25:12;10.50;99.90
35246;DHT22;21379;50.962;6.960;2023-04-03T08:27:40;10.50;99.90
35246;DHT22;21379;50.962;6.960;2023-04-03T08:30:08;10.10;99.90
35246;DHT22;21379;50.962;6.960;2023-04-03T08:32:35;9.90;99.90
35246;DHT22;21379;50.962;6.960;2023-04-03T08:35:02;10.10;99.90
35246;DHT22;21379;50.962;6.960;2023-04-03T08:37:29;10.30;99.90
35246;DHT22;21379;50.962;6.960;2023-04-03T08:39:57;9.90;99.90
35246;DHT22;21379;50.962;6.960;2023-04-03T08:42:36;9.20;99.90
35246;DHT22;21379;50.962;6.960;2023-04-03T08:45:10;8.50;99.90
35246;DHT22;21379;50.962;6.960;2023-04-03T08:47:42;8.60;99.90
35246;DHT22;21379;50.962;6.960;2023-04-03T08:50:13;9.00;99.90
35246;DHT22;21379;50.962;6.960;2023-04-03T08:52:44;9.90;99.90
35246;DHT22;21379;50.962;6.960;2023-04-03T08:55:19;10.30;99.90
35246;DHT22;21379;50.962;6.960;2023-04-03T08:57:47;10.60;99.90
35246;DHT22;21379;50.962;6.960;2023-04-03T09:00:20;10.80;99.90
35246;DHT22;21379;50.962;6.960;2023-04-03T09:02:48;10.90;99.90
35246;DHT22;21379;50.962;6.960;2023-04-03T09:05:17;11.10;99.90
35246;DHT22;21379;50.962;6.960;2023-04-03T09:07:49;11.00;99.90
35246;DHT22;21379;50.962;6.960;2023-04-03T09:10:24;11.20;99.90
35246;DHT22;21379;50.962;6.960;2023-04-03T09:13:01;11.50;99.90
35246;DHT22;21379;50.962;6.960;2023-04-03T09:15:32;11.20;99.90
35246;DHT22;21379;50.962;6.960;2023-04-03T09:18:03;11.20;99.20
35246;DHT22;21379;50.962;6.960;2023-04-03T09:20:39;11.10;99.00
35246;DHT22;21379;50.962;6.960;2023-04-03T09:23:28;11.00;99.40
35246;DHT22;21379;50.962;6.960;2023-04-03T09:26:02;11.00;98.80
35246;DHT22;21379;50.962;6.960;2023-04-03T09:28:32;11.10;99.60
35246;DHT22;21379;50.962;6.960;2023-04-03T09:31:05;11.30;98.80
35246;DHT22;21379;50.962;6.960;2023-04-03T09:33:41;11.80;99.10
35246;DHT22;21379;50.962;6.960;2023-04-03T09:36:07;11.50;98.80
35246;DHT22;21379;50.962;6.960;2023-04-03T09:38:34;11.60;99.00
35246;DHT22;21379;50.962;6.960;2023-04-03T09:41:05;11.90;98.00
35246;DHT22;21379;50.962;6.960;2023-04-03T09:43:34;12.10;98.90
35246;DHT22;21379;50.962;6.960;2023-04-03T09:46:29;12.90;98.70
35246;DHT22;21379;50.962;6.960;2023-04-03T09:48:58;12.30;96.90
35246;DHT22;21379;50.962;6.960;2023-04-03T09:51:26;13.20;96.80
35246;DHT22;21379;50.962;6.960;2023-04-03T09:53:54;14.10;96.50
35246;DHT22;21379;50.962;6.960;2023-04-03T09:56:25;13.50;96.30
35246;DHT22;21379;50.962;6.960;2023-04-03T09:59:06;14.20;94.50
35246;DHT22;21379;50.962;6.960;2023-04-03T10:01:37;14.60;93.60
35246;DHT22;21379;50.962;6.960;2023-04-03T10:04:08;14.30;93.10
35246;DHT22;21379;50.962;6.960;2023-04-03T10:06:38;14.40;92.40
35246;DHT22;21379;50.962;6.960;2023-04-03T10:09:18;14.70;92.50
35246;DHT22;21379;50.962;6.960;2023-04-03T10:12:00;15.50;92.10
35246;DHT22;21379;50.962;6.960;2023-04-03T10:14:31;16.40;91.50
35246;DHT22;21379;50.962;6.960;2023-04-03T10:17:05;15.90;90.50
35246;DHT22;21379;50.962;6.960;2023-04-03T10:19:40;15.70;88.60
35246;DHT22;21379;50.962;6.960;2023-04-03T10:22:16;16.10;86.60
35246;DHT22;21379;50.962;6.960;2023-04-03T10:24:51;15.70;86.00
35246;DHT22;21379;50.962;6.960;2023-04-03T10:27:27;16.30;87.40
35246;DHT22;21379;50.962;6.960;2023-04-03T10:30:04;16.30;83.50
35246;DHT22;21379;50.962;6.960;2023-04-03T10:32:48;16.10;83.10
35246;DHT22;21379;50.962;6.960;2023-04-03T10:35:26;15.40;81.20
35246;DHT22;21379;50.962;6.960;2023-04-03T10:38:03;15.20;82.70
35246;DHT22;21379;50.962;6.960;2023-04-03T10:40:37;15.00;80.70
35246;DHT22;21379;50.962;6.960;2023-04-03T10:43:12;15.30;82.90
35246;DHT22;21379;50.962;6.960;2023-04-03T10:45:56;15.50;82.20
35246;DHT22;21379;50.962;6.960;2023-04-03T10:48:36;15.30;83.40
35246;DHT22;21379;50.962;6.960;2023-04-03T10:51:16;15.70;79.80
35246;DHT22;21379;50.962;6.960;2023-04-03T10:53:53;16.10;80.10
35246;DHT22;21379;50.962;6.960;2023-04-03T10:56:30;16.30;80.00
35246;DHT22;21379;50.962;6.960;2023-04-03T10:59:01;16.60;82.20
35246;DHT22;21379;50.962;6.960;2023-04-03T11:01:32;18.50;83.10
35246;DHT22;21379;50.962;6.960;2023-04-03T11:04:03;18.00;78.10
35246;DHT22;21379;50.962;6.960;2023-04-03T11:06:34;18.40;79.30
35246;DHT22;21379;50.962;6.960;2023-04-03T11:09:07;19.80;77.80
35246;DHT22;21379;50.962;6.960;2023-04-03T11:11:39;19.60;76.00
35246;DHT22;21379;50.962;6.960;2023-04-03T11:14:11;19.60;73.00
35246;DHT22;21379;50.962;6.960;2023-04-03T11:16:45;20.00;74.20
35246;DHT22;21379;50.962;6.960;2023-04-03T11:19:18;17.10;71.90
35246;DHT22;21379;50.962;6.960;2023-04-03T11:21:52;18.40;74.20
35246;DHT22;21379;50.962;6.960;2023-04-03T11:24:25;18.90;72.20
35246;DHT22;21379;50.962;6.960;2023-04-03T11:26:53;18.90;71.00
35246;DHT22;21379;50.962;6.960;2023-04-03T11:29:24;18.20;71.10
35246;DHT22;21379;50.962;6.960;2023-04-03T11:32:06;19.20;71.00
35246;DHT22;21379;50.962;6.960;2023-04-03T11:34:40;19.10;70.50
35246;DHT22;21379;50.962;6.960;2023-04-03T11:37:15;20.00;69.40
35246;DHT22;21379;50.962;6.960;2023-04-03T11:39:50;20.30;70.60
35246;DHT22;21379;50.962;6.960;2023-04-03T11:42:27;20.00;70.60
35246;DHT22;21379;50.962;6.960;2023-04-03T11:45:21;19.90;67.50
35246;DHT22;21379;50.962;6.960;2023-04-03T11:47:51;19.90;69.20
35246;DHT22;21379;50.962;6.960;2023-04-03T11:50:42;20.10;67.10
35246;DHT22;21379;50.962;6.960;2023-04-03T11:53:34;20.50;68.30
35246;DHT22;21379;50.962;6.960;2023-04-03T11:56:30;18.00;65.70
35246;DHT22;21379;50.962;6.960;2023-04-03T11:59:25;16.00;68.10
35246;DHT22;21379;50.962;6.960;2023-04-03T12:01:53;15.80;68.30
35246;DHT22;21379;50.962;6.960;2023-04-03T12:04:23;14.70;69.90
35246;DHT22;21379;50.962;6.960;2023-04-03T12:07:20;14.20;70.40
35246;DHT22;21379;50.962;6.960;2023-04-03T12:12:59;15.50;71.30
35246;DHT22;21379;50.962;6.960;2023-04-03T12:15:52;16.00;69.30
35246;DHT22;21379;50.962;6.960;2023-04-03T12:18:43;14.70;67.90
35246;DHT22;21379;50.962;6.960;2023-04-03T12:21:11;16.20;70.90
35246;DHT22;21379;50.962;6.960;2023-04-03T12:23:57;17.10;69.40
35246;DHT22;21379;50.962;6.960;2023-04-03T12:26:28;17.00;68.20
35246;DHT22;21379;50.962;6.960;2023-04-03T12:28:58;16.50;65.90
35246;DHT22;21379;50.962;6.960;2023-04-03T12:31:36;14.70;66.80
35246;DHT22;21379;50.962;6.960;2023-04-03T12:34:15;14.90;69.20
35246;DHT22;21379;50.962;6.960;2023-04-03T12:36:55;15.60;69.50
35246;DHT22;21379;50.962;6.960;2023-04-03T12:39:42;14.30;69.90
35246;DHT22;21379;50.962;6.960;2023-04-03T12:42:22;15.20;71.00
35246;DHT22;21379;50.962;6.960;2023-04-03T12:44:56;15.10;71.10
35246;DHT22;21379;50.962;6.960;2023-04-03T12:47:29;13.90;69.50
35246;DHT22;21379;50.962;6.960;2023-04-03T12:49:59;13.20;70.30
35246;DHT22;21379;50.962;6.960;2023-04-03T12:52:35;13.10;71.20
35246;DHT22;21379;50.962;6.960;2023-04-03T12:55:08;12.70;71.80
35246;DHT22;21379;50.962;6.960;2023-04-03T12:57:40;13.30;70.70
35246;DHT22;21379;50.962;6.960;2023-04-03T13:00:31;13.20;69.20
35246;DHT22;21379;50.962;6.960;2023-04-03T13:02:59;14.00;70.80
35246;DHT22;21379;50.962;6.960;2023-04-03T13:05:27;14.30;68.50
35246;DHT22;21379;50.962;6.960;2023-04-03T13:07:59;14.60;68.90
35246;DHT22;21379;50.962;6.960;2023-04-03T13:10:27;14.80;69.30
35246;DHT22;21379;50.962;6.960;2023-04-03T13:12:55;14.50;67.90
35246;DHT22;21379;50.962;6.960;2023-04-03T13:15:24;13.70;67.10
35246;DHT22;21379;50.962;6.960;2023-04-03T13:17:53;14.10;68.80
35246;DHT22;21379;50.962;6.960;2023-04-03T13:20:24;14.20;66.90
35246;DHT22;21379;50.962;6.960;2023-04-03T13:23:04;14.60;70.90
35246;DHT22;21379;50.962;6.960;2023-04-03T13:25:35;15.20;68.70
35246;DHT22;21379;50.962;6.960;2023-04-03T13:28:04;15.00;67.40
35246;DHT22;21379;50.962;6.960;2023-04-03T13:30:34;15.00;66.70
35246;DHT22;21379;50.962;6.960;2023-04-03T13:33:05;15.40;67.00
35246;DHT22;21379;50.962;6.960;2023-04-03T13:35:36;15.70;69.10
35246;DHT22;21379;50.962;6.960;2023-04-03T13:38:07;16.10;67.00
35246;DHT22;21379;50.962;6.960;2023-04-03T13:40:49;16.40;66.70
35246;DHT22;21379;50.962;6.960;2023-04-03T13:43:21;16.60;66.20
35246;DHT22;21379;50.962;6.960;2023-04-03T13:46:05;16.70;67.40
35246;DHT22;21379;50.962;6.960;2023-04-03T13:48:39;17.50;68.20
35246;DHT22;21379;50.962;6.960;2023-04-03T13:51:18;16.60;67.10
35246;DHT22;21379;50.962;6.960;2023-04-03T13:53:47;16.70;67.60
35246;DHT22;21379;50.962;6.960;2023-04-03T13:56:21;16.50;67.30
35246;DHT22;21379;50.962;6.960;2023-04-03T13:58:54;16.90;66.30
35246;DHT22;21379;50.962;6.960;2023-04-03T14:01:23;16.90;66.80
35246;DHT22;21379;50.962;6.960;2023-04-03T14:03:55;16.10;67.50
35246;DHT22;21379;50.962;6.960;2023-04-03T14:06:22;17.10;67.40
35246;DHT22;21379;50.962;6.960;2023-04-03T14:08:50;18.00;67.30
35246;DHT22;21379;50.962;6.960;2023-04-03T14:11:19;18.80;67.80
35246;DHT22;21379;50.962;6.960;2023-04-03T14:13:48;19.20;69.20
35246;DHT22;21379;50.962;6.960;2023-04-03T14:16:18;19.90;67.30
35246;DHT22;21379;50.962;6.960;2023-04-03T14:18:46;20.00;65.80
35246;DHT22;21379;50.962;6.960;2023-04-03T14:21:17;18.60;66.20
35246;DHT22;21379;50.962;6.960;2023-04-03T14:23:45;19.50;66.80
35246;DHT22;21379;50.962;6.960;2023-04-03T14:26:13;19.40;66.60
35246;DHT22;21379;50.962;6.960;2023-04-03T14:28:42;18.30;66.20
35246;DHT22;21379;50.962;6.960;2023-04-03T14:31:10;18.10;65.60
35246;DHT22;21379;50.962;6.960;2023-04-03T14:33:38;17.30;66.90
35246;DHT22;21379;50.962;6.960;2023-04-03T14:36:12;16.30;68.60
35246;DHT22;21379;50.962;6.960;2023-04-03T14:38:42;15.10;70.00
35246;DHT22;21379;50.962;6.960;2023-04-03T14:41:12;13.10;70.20
35246;DHT22;21379;50.962;6.960;2023-04-03T14:43:39;12.70;70.90
35246;DHT22;21379;50.962;6.960;2023-04-03T14:46:12;13.10;72.70
35246;DHT22;21379;50.962;6.960;2023-04-03T14:48:39;13.40;71.30
35246;DHT22;21379;50.962;6.960;2023-04-03T14:51:08;12.90;72.00
35246;DHT22;21379;50.962;6.960;2023-04-03T14:53:35;12.80;73.60
35246;DHT22;21379;50.962;6.960;2023-04-03T14:56:09;12.80;71.60
35246;DHT22;21379;50.962;6.960;2023-04-03T14:58:36;12.10;71.60
35246;DHT22;21379;50.962;6.960;2023-04-03T15:01:03;12.20;73.10
35246;DHT22;21379;50.962;6.960;2023-04-03T15:03:30;12.00;72.80
35246;DHT22;21379;50.962;6.960;2023-04-03T15:05:57;12.20;73.20
35246;DHT22;21379;50.962;6.960;2023-04-03T15:08:26;12.20;73.50
35246;DHT22;21379;50.962;6.960;2023-04-03T15:10:55;12.30;73.20
35246;DHT22;21379;50.962;6.960;2023-04-03T15:13:24;12.10;73.80
35246;DHT22;21379;50.962;6.960;2023-04-03T15:15:51;11.50;73.50
35246;DHT22;21379;50.962;6.960;2023-04-03T15:18:20;11.00;73.80
35246;DHT22;21379;50.962;6.960;2023-04-03T15:20:48;11.00;74.70
35246;DHT22;21379;50.962;6.960;2023-04-03T15:23:16;10.90;75.30
35246;DHT22;21379;50.962;6.960;2023-04-03T15:25:44;11.20;75.70
35246;DHT22;21379;50.962;6.960;2023-04-03T15:28:18;11.30;75.60
35246;DHT22;21379;50.962;6.960;2023-04-03T15:30:47;11.30;75.50
35246;DHT22;21379;50.962;6.960;2023-04-03T15:33:14;11.00;75.40
35246;DHT22;21379;50.962;6.960;2023-04-03T15:35:42;10.80;74.20
35246;DHT22;21379;50.962;6.960;2023-04-03T15:38:10;10.70;75.70
35246;DHT22;21379;50.962;6.960;2023-04-03T15:40:37;10.70;76.20
35246;DHT22;21379;50.962;6.960;2023-04-03T15:43:05;10.70;75.70
35246;DHT22;21379;50.962;6.960;2023-04-03T15:45:33;10.70;77.10
35246;DHT22;21379;50.962;6.960;2023-04-03T15:48:03;10.90;77.80
35246;DHT22;21379;50.962;6.960;2023-04-03T15:50:31;10.80;77.70
35246;DHT22;21379;50.962;6.960;2023-04-03T15:52:58;11.00;77.60
35246;DHT22;21379;50.962;6.960;2023-04-03T15:55:28;10.80;74.80
35246;DHT22;21379;50.962;6.960;2023-04-03T15:57:55;10.80;76.40
35246;DHT22;21379;50.962;6.960;2023-04-03T16:00:23;10.60;77.70